createdAt,value
2023-01-17T00:02:50.028Z,5.00
2023-01-17T00:06:11.737Z,4.90
2023-01-17T00:09:33.706Z,4.70
2023-01-17T00:12:37.109Z,5.10
2023-01-17T00:15:40.274Z,4.90
2023-01-17T00:19:03.555Z,5.00
2023-01-17T00:22:29.786Z,4.90
2023-01-17T00:25:52.721Z,4.80
2023-01-17T00:28:54.558Z,4.70
2023-01-17T00:31:56.375Z,4.70
2023-01-17T00:34:58.247Z,4.80
2023-01-17T00:38:15.886Z,4.90
2023-01-17T00:41:18.059Z,4.40
2023-01-17T00:44:38.584Z,4.40
2023-01-17T00:47:59.339Z,4.30
2023-01-17T00:51:22.143Z,4.60
2023-01-17T00:54:43.765Z,4.60
2023-01-17T00:58:04.429Z,4.50
2023-01-17T01:01:25.509Z,4.30
2023-01-17T01:04:45.929Z,4.20
2023-01-17T01:08:06.254Z,4.20
2023-01-17T01:11:30.387Z,4.30
2023-01-17T01:14:50.755Z,4.30
2023-01-17T01:18:11.404Z,4.40
2023-01-17T01:21:32.052Z,4.00
2023-01-17T01:24:52.316Z,4.20
2023-01-17T01:28:22.330Z,4.10
2023-01-17T01:31:42.708Z,4.30
2023-01-17T01:34:45.853Z,4.20
2023-01-17T01:37:49.184Z,4.10
2023-01-17T01:40:53.887Z,4.40
2023-01-17T01:43:58.259Z,4.10
2023-01-17T01:47:01.890Z,4.50
2023-01-17T01:50:09.485Z,4.40
2023-01-17T01:53:13.394Z,4.20
2023-01-17T01:56:17.218Z,4.50
2023-01-17T01:59:23.444Z,4.10
2023-01-17T02:02:27.270Z,4.30
2023-01-17T02:05:30.947Z,4.20
2023-01-17T02:11:54.931Z,4.40
2023-01-17T02:15:00.546Z,4.20
2023-01-17T02:23:08.428Z,4.20
2023-01-17T02:30:25.989Z,4.30
2023-01-17T02:33:34.769Z,4.50
2023-01-17T02:36:43.235Z,4.40
2023-01-17T02:39:55.106Z,4.40
2023-01-17T02:43:02.787Z,4.50
2023-01-17T02:46:09.666Z,4.60
2023-01-17T02:49:13.122Z,4.50
2023-01-17T02:52:31.402Z,4.60
2023-01-17T02:55:48.586Z,4.70
2023-01-17T02:59:07.142Z,4.50
2023-01-17T03:02:18.236Z,4.70
2023-01-17T03:05:25.064Z,4.50
2023-01-17T03:08:29.559Z,4.60
2023-01-17T03:11:32.680Z,4.80
2023-01-17T03:14:35.689Z,5.00
2023-01-17T03:17:46.032Z,4.90
2023-01-17T03:20:49.083Z,4.70
2023-01-17T03:23:52.498Z,4.90
2023-01-17T03:26:55.524Z,4.80
2023-01-17T03:29:58.534Z,4.60
2023-01-17T03:33:03.900Z,4.90
2023-01-17T03:36:07.274Z,4.90
2023-01-17T03:39:10.478Z,4.80
2023-01-17T03:42:13.958Z,4.80
2023-01-17T03:45:17.786Z,4.80
2023-01-17T03:48:22.790Z,4.80
2023-01-17T03:51:25.922Z,4.80
2023-01-17T03:54:28.971Z,4.90
2023-01-17T03:57:32.014Z,4.80
2023-01-17T04:00:35.061Z,4.90
2023-01-17T04:03:39.583Z,5.10
2023-01-17T04:06:42.597Z,5.20
2023-01-17T04:09:45.579Z,5.00
2023-01-17T04:12:48.566Z,5.10
2023-01-17T04:15:52.692Z,5.10
2023-01-17T04:18:57.311Z,5.00
2023-01-17T04:22:00.283Z,5.10
2023-01-17T04:25:03.283Z,5.20
2023-01-17T04:28:06.834Z,5.10
2023-01-17T04:31:14.292Z,5.00
2023-01-17T04:34:18.817Z,5.10
2023-01-17T04:37:21.869Z,5.20
2023-01-17T04:40:24.938Z,5.00
2023-01-17T04:43:28.141Z,5.00
2023-01-17T04:46:31.448Z,4.90
2023-01-17T04:49:35.836Z,5.10
2023-01-17T04:52:38.910Z,5.10
2023-01-17T04:55:42.090Z,5.20
2023-01-17T04:58:45.180Z,5.30
2023-01-17T05:01:49.444Z,5.40
2023-01-17T05:04:53.793Z,5.00
2023-01-17T05:07:57.561Z,5.00
2023-01-17T05:11:00.587Z,5.10
2023-01-17T05:14:03.668Z,5.10
2023-01-17T05:17:07.653Z,5.40
2023-01-17T05:20:13.154Z,5.10
2023-01-17T05:23:16.131Z,5.20
2023-01-17T05:26:19.124Z,5.30
2023-01-17T05:29:22.694Z,5.20
2023-01-17T05:32:25.704Z,5.30
2023-01-17T05:35:32.718Z,5.10
2023-01-17T05:38:35.805Z,5.30
2023-01-17T05:41:38.793Z,5.20
2023-01-17T05:44:42.402Z,5.10
2023-01-17T05:47:45.424Z,5.30
2023-01-17T05:50:50.009Z,5.30
2023-01-17T05:53:53.056Z,5.40
2023-01-17T05:56:56.046Z,5.40
2023-01-17T05:59:59.029Z,5.10
2023-01-17T06:03:03.013Z,5.30
2023-01-17T06:06:07.979Z,5.20
2023-01-17T06:09:11.716Z,5.40
2023-01-17T06:12:14.686Z,5.40
2023-01-17T06:15:19.245Z,5.30
2023-01-17T06:18:22.271Z,5.40
2023-01-17T06:21:26.641Z,5.50
2023-01-17T06:24:30.363Z,5.20
2023-01-17T06:27:33.392Z,5.30
2023-01-17T06:30:36.702Z,5.30
2023-01-17T06:33:39.667Z,5.50
2023-01-17T06:36:44.108Z,5.30
2023-01-17T06:39:47.088Z,5.40
2023-01-17T06:42:50.088Z,5.30
2023-01-17T06:45:53.140Z,5.10
2023-01-17T06:48:56.130Z,5.40
2023-01-17T06:52:00.689Z,5.30
2023-01-17T06:55:03.788Z,5.30
2023-01-17T06:58:07.013Z,5.30
2023-01-17T07:01:12.083Z,5.10
2023-01-17T07:04:15.174Z,5.30
2023-01-17T07:07:19.512Z,5.20
2023-01-17T07:10:23.597Z,5.30
2023-01-17T07:13:27.125Z,5.30
2023-01-17T07:16:30.332Z,5.10
2023-01-17T07:19:33.340Z,5.20
2023-01-17T07:22:37.965Z,5.30
2023-01-17T07:25:40.992Z,5.20
2023-01-17T07:28:44.038Z,5.20
2023-01-17T07:31:47.066Z,5.10
2023-01-17T07:34:51.010Z,5.20
2023-01-17T07:37:55.793Z,5.10
2023-01-17T07:41:00.524Z,5.20
2023-01-17T07:44:03.495Z,5.10
2023-01-17T07:47:06.524Z,5.10
2023-01-17T07:50:10.882Z,5.00
2023-01-17T07:53:15.299Z,5.10
2023-01-17T07:56:18.299Z,5.20
2023-01-17T07:59:21.430Z,5.20
2023-01-17T08:02:24.963Z,5.30
2023-01-17T08:05:28.531Z,5.40
2023-01-17T08:08:33.079Z,5.30
2023-01-17T08:11:36.019Z,5.10
2023-01-17T08:14:39.014Z,5.40
2023-01-17T08:17:47.098Z,5.50
2023-01-17T08:20:50.145Z,5.20
2023-01-17T08:23:54.629Z,5.40
2023-01-17T08:26:57.626Z,5.40
2023-01-17T08:30:00.654Z,5.20
2023-01-17T08:33:03.869Z,5.30
2023-01-17T08:36:07.250Z,5.30
2023-01-17T08:39:13.540Z,5.20
2023-01-17T08:42:16.853Z,5.40
2023-01-17T08:45:19.949Z,5.30
2023-01-17T08:48:23.295Z,5.40
2023-01-17T08:51:27.296Z,5.70
2023-01-17T08:54:31.723Z,5.20
2023-01-17T08:57:35.009Z,5.50
2023-01-17T09:00:37.985Z,5.40
2023-01-17T09:03:41.089Z,5.50
2023-01-17T09:06:48.225Z,5.30
2023-01-17T09:09:52.945Z,5.50
2023-01-17T09:12:55.981Z,5.70
2023-01-17T09:15:59.483Z,5.50
2023-01-17T09:19:02.545Z,5.70
2023-01-17T09:22:06.553Z,5.50
2023-01-17T09:25:11.458Z,5.40
2023-01-17T09:28:14.457Z,5.50
2023-01-17T09:31:18.686Z,5.80
2023-01-17T09:34:21.760Z,5.60
2023-01-17T09:37:24.843Z,5.70
2023-01-17T09:40:29.272Z,5.50
2023-01-17T09:43:41.164Z,5.50
2023-01-17T09:46:47.693Z,5.70
2023-01-17T09:49:51.225Z,5.40
2023-01-17T09:53:00.650Z,5.60
2023-01-17T09:56:11.758Z,5.50
2023-01-17T09:59:35.626Z,5.30
2023-01-17T10:02:51.855Z,5.30
2023-01-17T10:06:15.175Z,5.40
2023-01-17T10:09:45.600Z,5.60
2023-01-17T10:12:56.094Z,5.60
2023-01-17T10:16:13.609Z,5.60
2023-01-17T10:19:41.354Z,5.20
2023-01-17T10:22:58.579Z,5.60
2023-01-17T10:26:03.587Z,5.40
2023-01-17T10:29:16.651Z,5.40
2023-01-17T10:32:22.540Z,5.60
2023-01-17T10:35:30.990Z,5.30
2023-01-17T10:38:36.407Z,5.30
2023-01-17T10:41:43.363Z,5.10
2023-01-17T10:44:53.788Z,5.20
2023-01-17T10:48:05.918Z,5.10
2023-01-17T10:51:17.270Z,5.10
2023-01-17T10:54:30.089Z,5.10
2023-01-17T10:57:40.416Z,5.10
2023-01-17T11:00:50.342Z,4.90
2023-01-17T11:03:55.337Z,5.20
2023-01-17T11:07:13.221Z,5.20
2023-01-17T11:10:36.616Z,5.00
2023-01-17T11:13:40.059Z,5.00
2023-01-17T11:16:44.861Z,4.80
2023-01-17T11:19:51.231Z,5.00
2023-01-17T11:23:12.448Z,5.00
2023-01-17T11:26:25.666Z,4.80
2023-01-17T11:29:36.105Z,5.00
2023-01-17T11:32:52.682Z,4.70
2023-01-17T11:35:55.771Z,4.70
2023-01-17T11:39:02.817Z,4.30
2023-01-17T11:42:08.328Z,4.20
2023-01-17T11:45:25.900Z,4.30
2023-01-17T11:48:35.204Z,4.20
2023-01-17T11:51:43.189Z,4.10
2023-01-17T11:54:47.903Z,4.00
2023-01-17T11:57:52.060Z,3.60
2023-01-17T12:01:01.962Z,3.70
2023-01-17T12:04:29.716Z,3.70
2023-01-17T12:07:43.164Z,3.80
2023-01-17T12:10:57.728Z,3.90
2023-01-17T12:14:13.047Z,4.20
2023-01-17T12:17:27.053Z,4.00
2023-01-17T12:20:41.710Z,4.30
2023-01-17T12:23:58.769Z,4.20
2023-01-17T12:27:10.598Z,4.50
2023-01-17T12:30:26.649Z,4.40
2023-01-17T12:33:38.853Z,4.40
2023-01-17T12:36:49.578Z,4.40
2023-01-17T12:39:59.167Z,4.60
2023-01-17T12:43:08.778Z,4.40
2023-01-17T12:46:20.898Z,4.50
2023-01-17T12:49:28.961Z,4.60
2023-01-17T12:52:46.005Z,4.60
2023-01-17T12:55:55.619Z,4.60
2023-01-17T12:59:09.556Z,4.80
2023-01-17T13:02:21.613Z,4.90
2023-01-17T13:05:30.666Z,4.90
2023-01-17T13:08:41.903Z,4.90
2023-01-17T13:11:49.771Z,4.80
2023-01-17T13:14:52.852Z,4.80
2023-01-17T13:18:01.906Z,4.90
2023-01-17T13:21:30.014Z,5.00
2023-01-17T13:24:45.307Z,4.90
2023-01-17T13:28:02.812Z,4.90
2023-01-17T13:31:31.662Z,4.80
2023-01-17T13:34:47.997Z,4.80
2023-01-17T13:38:22.525Z,4.60
2023-01-17T13:41:46.775Z,4.70
2023-01-17T13:44:50.520Z,4.70
2023-01-17T13:47:54.021Z,4.70
2023-01-17T13:50:58.048Z,4.70
2023-01-17T13:54:01.099Z,4.40
2023-01-17T13:57:42.148Z,4.70
2023-01-17T14:00:55.063Z,4.60
2023-01-17T14:04:06.501Z,4.40
2023-01-17T14:07:21.168Z,4.80
2023-01-17T14:10:34.451Z,4.70
2023-01-17T14:13:40.753Z,4.80
2023-01-17T14:16:46.212Z,4.60
2023-01-17T14:19:51.592Z,4.50
2023-01-17T14:22:57.075Z,4.70
2023-01-17T14:26:13.255Z,4.90
2023-01-17T14:29:50.884Z,4.80
2023-01-17T14:33:15.821Z,4.70
2023-01-17T14:36:26.178Z,4.70
2023-01-17T14:39:29.159Z,4.90
2023-01-17T14:42:34.086Z,5.10
2023-01-17T14:45:39.672Z,4.90
2023-01-17T14:48:42.760Z,4.80
2023-01-17T14:52:00.188Z,4.60
2023-01-17T14:55:15.423Z,4.60
2023-01-17T14:58:18.965Z,4.60
2023-01-17T15:01:23.715Z,4.70
2023-01-17T15:04:28.989Z,4.70
2023-01-17T15:07:32.319Z,4.40
2023-01-17T15:10:47.677Z,4.50
2023-01-17T15:13:54.809Z,4.60
2023-01-17T15:17:10.324Z,4.50
2023-01-17T15:20:18.192Z,4.50
2023-01-17T15:23:23.037Z,4.50
2023-01-17T15:26:28.866Z,4.40
2023-01-17T15:29:34.459Z,4.50
2023-01-17T15:32:39.448Z,4.40
2023-01-17T15:35:42.550Z,4.30
2023-01-17T15:38:53.160Z,4.40
2023-01-17T15:41:58.544Z,4.50
2023-01-17T15:45:04.289Z,4.30
2023-01-17T15:48:44.452Z,4.20
2023-01-17T15:51:50.824Z,4.20
2023-01-17T15:54:54.954Z,4.10
2023-01-17T15:57:58.297Z,4.00
2023-01-17T16:01:01.770Z,4.10
2023-01-17T16:04:33.062Z,3.80
2023-01-17T16:07:37.068Z,3.90
2023-01-17T16:10:40.334Z,4.00
2023-01-17T16:13:47.158Z,3.80
2023-01-17T16:16:52.020Z,3.80
2023-01-17T16:19:56.580Z,3.80
2023-01-17T16:23:00.523Z,3.80
2023-01-17T16:26:05.299Z,3.40
2023-01-17T16:29:08.594Z,3.60
2023-01-17T16:32:11.557Z,3.40
2023-01-17T16:35:20.749Z,3.50
2023-01-17T16:38:23.930Z,3.40
2023-01-17T16:41:27.093Z,3.50
2023-01-17T16:44:30.783Z,3.40
2023-01-17T16:47:33.795Z,3.40
2023-01-17T16:50:42.322Z,3.30
2023-01-17T16:53:45.332Z,3.20
2023-01-17T16:56:48.527Z,3.30
2023-01-17T16:59:52.307Z,3.50
2023-01-17T17:02:55.692Z,3.00
2023-01-17T17:06:01.866Z,3.20
2023-01-17T17:09:04.923Z,3.10
2023-01-17T17:12:08.291Z,3.10
2023-01-17T17:15:12.975Z,3.10
2023-01-17T17:18:17.571Z,3.00
2023-01-17T17:21:22.093Z,2.80
2023-01-17T17:24:25.122Z,2.80
2023-01-17T17:27:28.168Z,3.10
2023-01-17T17:30:32.252Z,2.90
2023-01-17T17:33:35.365Z,2.80
2023-01-17T17:36:40.034Z,2.60
2023-01-17T17:39:44.399Z,2.70
2023-01-17T17:42:47.417Z,2.80
2023-01-17T17:45:50.382Z,2.70
2023-01-17T17:48:53.399Z,2.80
2023-01-17T17:52:04.671Z,2.80
2023-01-17T17:55:08.472Z,2.70
2023-01-17T17:58:11.507Z,2.90
2023-01-17T18:01:14.582Z,2.80
2023-01-17T18:04:17.941Z,2.40
2023-01-17T18:07:22.355Z,2.70
2023-01-17T18:10:25.346Z,2.90
2023-01-17T18:13:28.924Z,2.60
2023-01-17T18:16:35.470Z,2.60
2023-01-17T18:19:38.698Z,2.60
2023-01-17T18:22:43.420Z,2.50
2023-01-17T18:25:46.357Z,2.60
2023-01-17T18:28:50.092Z,2.50
2023-01-17T18:31:54.668Z,2.50
2023-01-17T18:34:57.815Z,2.20
2023-01-17T18:38:02.172Z,2.20
2023-01-17T18:41:06.457Z,2.50
2023-01-17T18:44:09.605Z,2.20
2023-01-17T18:47:13.024Z,2.20
2023-01-17T18:50:16.561Z,2.10
2023-01-17T18:53:20.980Z,2.00
2023-01-17T18:56:24.520Z,2.10
2023-01-17T18:59:27.650Z,2.00
2023-01-17T19:02:31.083Z,2.10
2023-01-17T19:05:36.768Z,2.10
2023-01-17T19:08:41.418Z,2.10
2023-01-17T19:11:45.450Z,1.90
2023-01-17T19:14:48.443Z,2.10
2023-01-17T19:17:51.449Z,2.10
2023-01-17T19:20:54.452Z,2.10
2023-01-17T19:23:59.117Z,2.00
2023-01-17T19:27:02.681Z,2.00
2023-01-17T19:30:06.728Z,2.00
2023-01-17T19:33:09.741Z,2.20
2023-01-17T19:36:16.068Z,1.90
2023-01-17T19:39:20.470Z,2.20
2023-01-17T19:42:23.563Z,1.90
2023-01-17T19:45:26.934Z,1.90
2023-01-17T19:48:30.030Z,1.90
2023-01-17T19:51:33.074Z,1.90
2023-01-17T19:54:37.638Z,1.50
2023-01-17T19:57:40.762Z,1.80
2023-01-17T20:00:46.739Z,1.80
2023-01-17T20:03:50.872Z,1.70
2023-01-17T20:06:54.805Z,1.50
2023-01-17T20:09:59.329Z,1.60
2023-01-17T20:13:02.301Z,1.70
2023-01-17T20:16:07.209Z,1.50
2023-01-17T20:19:10.150Z,1.60
2023-01-17T20:22:13.155Z,1.40
2023-01-17T20:25:17.724Z,1.50
2023-01-17T20:28:20.780Z,1.40
2023-01-17T20:31:26.702Z,1.40
2023-01-17T20:34:31.464Z,1.40
2023-01-17T20:37:34.492Z,1.40
2023-01-17T20:40:38.909Z,1.40
2023-01-17T20:43:42.223Z,1.30
2023-01-17T20:46:46.215Z,1.40
2023-01-17T20:49:49.301Z,1.50
2023-01-17T20:52:52.336Z,1.30
2023-01-17T20:55:58.638Z,1.20
2023-01-17T20:59:03.632Z,1.20
2023-01-17T21:02:09.902Z,1.30
2023-01-17T21:05:12.993Z,1.20
2023-01-17T21:08:18.475Z,1.20
2023-01-17T21:11:24.775Z,1.20
2023-01-17T21:14:27.929Z,1.20
2023-01-17T21:17:30.957Z,1.30
2023-01-17T21:20:36.038Z,1.30
2023-01-17T21:23:41.101Z,1.20
2023-01-17T21:26:45.819Z,1.20
2023-01-17T21:29:48.965Z,1.10
2023-01-17T21:32:51.969Z,1.20
2023-01-17T21:35:55.043Z,1.20
2023-01-17T21:39:00.046Z,1.30
2023-01-17T21:42:04.490Z,1.10
2023-01-17T21:45:09.701Z,1.10
2023-01-17T21:48:13.338Z,1.10
2023-01-17T21:51:17.113Z,0.90
2023-01-17T21:54:20.302Z,1.20
2023-01-17T21:57:42.115Z,1.00
2023-01-17T22:00:45.230Z,1.10
2023-01-17T22:03:50.921Z,0.90
2023-01-17T22:06:53.856Z,0.90
2023-01-17T22:09:57.460Z,1.10
2023-01-17T22:13:01.802Z,0.80
2023-01-17T22:16:07.475Z,0.90
2023-01-17T22:19:10.699Z,1.00
2023-01-17T22:22:13.787Z,1.00
2023-01-17T22:25:16.959Z,1.10
2023-01-17T22:28:21.414Z,1.00
2023-01-17T22:31:26.294Z,1.10
2023-01-17T22:34:29.319Z,0.80
2023-01-17T22:37:32.314Z,0.90
2023-01-17T22:40:38.204Z,1.00
2023-01-17T22:43:44.557Z,0.60
2023-01-17T22:46:48.109Z,0.90
2023-01-17T22:49:51.135Z,0.60
2023-01-17T22:52:54.215Z,0.80
2023-01-17T22:56:01.921Z,0.80
2023-01-17T22:59:11.704Z,0.60
2023-01-17T23:02:16.493Z,0.80
2023-01-17T23:05:20.203Z,0.80
2023-01-17T23:08:23.296Z,0.80
2023-01-17T23:11:40.610Z,0.70
2023-01-17T23:15:05.108Z,0.70
2023-01-17T23:18:27.571Z,0.50
2023-01-17T23:21:50.801Z,0.80
2023-01-17T23:24:55.301Z,0.50
2023-01-17T23:28:19.865Z,0.50
2023-01-17T23:31:24.449Z,0.40
2023-01-17T23:34:27.617Z,0.70
2023-01-17T23:37:45.277Z,0.50
2023-01-17T23:41:08.571Z,0.50
2023-01-17T23:44:10.556Z,0.50
2023-01-17T23:47:15.363Z,0.80
2023-01-17T23:50:18.472Z,0.60
2023-01-17T23:53:23.041Z,0.60
2023-01-17T23:56:26.032Z,0.80
2023-01-17T23:59:29.642Z,0.50
